Time;durP1;ratioP1;P1;durP2;ratioP2;P2;SDS_P1;SDS_P2;PMS_P1;PMS_P2;Temp;Humidity;BMP_temperature;BMP_pressure;BME280_temperature;BME280_humidity;BME280_pressure;Samples;Min_cycle;Max_cycle;Signal;HPM_P1;HPM_P2
2022/03/05 00:01:34;;;;;;;18.80;11.73;;;;;;;1.29;82.06;102061.38;10460643;28;20099;-76
2022/03/05 00:06:34;;;;;;;24.38;13.25;;;;;;;1.27;81.03;102052.63;10461560;28;20033;-75
2022/03/05 00:11:35;;;;;;;19.02;13.32;;;;;;;1.14;82.32;102061.50;10460175;28;20037;-75
2022/03/05 00:16:35;;;;;;;27.58;15.32;;;;;;;1.16;82.09;102070.25;10459843;28;20040;-75
2022/03/05 00:21:36;;;;;;;24.58;13.60;;;;;;;1.19;80.59;102061.19;10464553;28;20029;-75
2022/03/05 00:26:36;;;;;;;26.90;14.32;;;;;;;1.09;80.80;102062.81;10465858;28;20072;-75
2022/03/05 00:31:36;;;;;;;24.25;14.50;;;;;;;1.03;79.23;102065.91;10461538;28;20044;-75
2022/03/05 00:36:38;;;;;;;28.80;16.10;;;;;;;0.90;77.85;102068.56;10459113;28;20025;-75
2022/03/05 00:41:38;;;;;;;25.20;15.27;;;;;;;0.72;80.60;102075.16;10458944;28;20037;-75
2022/03/05 00:46:40;;;;;;;25.85;14.30;;;;;;;0.56;85.17;102068.19;10458254;28;20056;-74
2022/03/05 00:51:41;;;;;;;15.20;10.07;;;;;;;0.48;87.82;102078.53;10459433;28;20076;-75
2022/03/05 00:56:41;;;;;;;31.38;18.60;;;;;;;0.50;88.33;102075.75;10458849;28;20140;-74
2022/03/05 01:01:42;;;;;;;22.60;14.80;;;;;;;0.46;87.75;102085.75;10423498;28;20037;-74
2022/03/05 01:06:42;;;;;;;23.02;15.02;;;;;;;0.40;88.33;102087.03;10458246;28;20032;-74
2022/03/05 01:11:42;;;;;;;23.05;13.77;;;;;;;0.40;89.19;102096.81;10457990;28;20044;-74
2022/03/05 01:16:43;;;;;;;29.90;17.45;;;;;;;0.37;88.71;102091.69;10460675;28;20448;-75
2022/03/05 01:21:43;;;;;;;36.42;15.35;;;;;;;0.23;91.03;102085.47;10440231;28;20069;-74
2022/03/05 01:26:44;;;;;;;32.72;16.77;;;;;;;0.19;91.80;102094.66;10461940;28;20108;-74
2022/03/05 01:31:44;;;;;;;30.25;14.90;;;;;;;0.12;92.92;102093.31;10440481;28;20053;-74
2022/03/05 01:36:44;;;;;;;22.85;15.10;;;;;;;0.05;93.68;102089.34;10457326;28;20040;-74
2022/03/05 01:41:46;;;;;;;38.20;19.63;;;;;;;0.06;93.58;102088.38;10422215;28;20539;-74
2022/03/05 01:46:46;;;;;;;29.30;18.90;;;;;;;0.03;92.57;102093.06;10456999;28;20033;-75
2022/03/05 01:51:46;;;;;;;38.03;19.83;;;;;;;-0.01;93.20;102084.41;10424792;28;20045;-75
2022/03/05 01:56:47;;;;;;;26.25;18.60;;;;;;;-0.09;93.52;102089.41;10443385;28;20147;-75
2022/03/05 02:01:47;;;;;;;32.00;13.82;;;;;;;-0.14;93.96;102087.03;10457153;28;20064;-74
2022/03/05 02:06:48;;;;;;;28.45;13.77;;;;;;;-0.19;95.19;102082.94;10438461;28;20037;-76
2022/03/05 02:11:48;;;;;;;41.65;22.42;;;;;;;-0.26;97.45;102083.34;10423597;28;20045;-76
2022/03/05 02:16:49;;;;;;;25.70;14.98;;;;;;;-0.29;97.79;102082.69;10442377;28;20372;-74
2022/03/05 02:21:49;;;;;;;29.30;20.50;;;;;;;-0.29;96.19;102083.56;10445662;28;20100;-74
2022/03/05 02:26:49;;;;;;;37.15;20.70;;;;;;;-0.35;96.88;102067.97;10468633;28;20033;-74
2022/03/05 02:31:50;;;;;;;38.00;16.42;;;;;;;-0.36;96.31;102076.91;10448017;28;20033;-75
2022/03/05 02:36:50;;;;;;;49.67;21.80;;;;;;;-0.34;95.72;102072.34;10445355;28;20033;-74
2022/03/05 02:41:54;;;;;;;53.65;26.35;;;;;;;-0.48;97.09;102075.00;10446512;28;20060;-75
2022/03/05 02:46:55;;;;;;;38.00;23.38;;;;;;;-0.54;97.70;102073.63;10427815;28;20036;-75
2022/03/05 02:51:55;;;;;;;33.55;22.10;;;;;;;-0.54;97.06;102072.75;10461653;28;20159;-74
2022/03/05 02:56:55;;;;;;;28.25;16.67;;;;;;;-0.58;95.99;102069.41;10443520;28;20057;-74
2022/03/05 03:01:56;;;;;;;36.92;19.63;;;;;;;-0.66;96.94;102070.88;10444405;28;20416;-74
2022/03/05 03:06:56;;;;;;;32.92;19.83;;;;;;;-0.77;96.52;102061.72;10462633;28;20118;-74
2022/03/05 03:11:57;;;;;;;35.30;21.90;;;;;;;-0.80;97.34;102061.06;10461726;28;20535;-74
2022/03/05 03:16:57;;;;;;;27.15;15.27;;;;;;;-0.87;99.28;102054.44;10461980;28;20068;-74
2022/03/05 03:21:57;;;;;;;39.72;19.27;;;;;;;-0.82;98.35;102062.97;10460378;28;20040;-74
2022/03/05 03:26:58;;;;;;;25.92;17.65;;;;;;;-0.94;99.21;102056.59;10464136;28;20052;-74
2022/03/05 03:31:58;;;;;;;43.45;24.83;;;;;;;-0.92;98.56;102062.69;10464027;28;20036;-75
2022/03/05 03:36:58;;;;;;;42.70;24.52;;;;;;;-0.89;96.01;102062.50;10443066;28;20060;-74
2022/03/05 03:41:59;;;;;;;38.15;21.73;;;;;;;-0.94;95.57;102056.59;10459906;28;20056;-74
2022/03/05 03:46:59;;;;;;;37.17;22.98;;;;;;;-1.03;96.37;102058.03;10461253;28;20033;-74
2022/03/05 03:52:00;;;;;;;35.25;21.08;;;;;;;-1.04;95.42;102047.50;10460568;28;20478;-74
2022/03/05 03:57:00;;;;;;;40.63;24.05;;;;;;;-1.03;94.51;102049.19;10466063;28;20052;-75
2022/03/05 04:02:04;;;;;;;43.25;25.60;;;;;;;-1.13;93.99;102048.91;10462689;28;20116;-75
2022/03/05 04:12:23;;;;;;;38.58;24.17;;;;;;;-1.22;95.60;102050.31;10464434;28;20041;-74
2022/03/05 04:17:24;;;;;;;36.15;21.52;;;;;;;-1.23;95.61;102042.44;10461271;28;20488;-75
2022/03/05 04:22:24;;;;;;;45.50;23.50;;;;;;;-1.23;94.30;102050.41;10441753;28;20052;-74
2022/03/05 04:27:25;;;;;;;41.55;23.95;;;;;;;-1.25;92.73;102047.84;10463760;28;20039;-75
2022/03/05 04:32:25;;;;;;;30.90;17.80;;;;;;;-1.36;95.47;102052.13;10461918;28;20045;-75
2022/03/05 04:37:25;;;;;;;38.88;22.90;;;;;;;-1.43;97.93;102060.44;10456953;28;20063;-74
2022/03/05 04:42:26;;;;;;;40.08;20.67;;;;;;;-1.40;97.43;102067.38;10440270;28;20045;-74
2022/03/05 04:47:26;;;;;;;43.42;26.70;;;;;;;-1.42;95.27;102066.59;10440539;28;20045;-74
2022/03/05 04:52:27;;;;;;;52.95;24.80;;;;;;;-1.47;96.15;102076.63;10459217;28;20063;-74
2022/03/05 04:57:27;;;;;;;40.70;21.13;;;;;;;-1.50;96.83;102069.72;10458316;28;20437;-74
2022/03/05 05:02:27;;;;;;;34.47;21.48;;;;;;;-1.49;95.48;102078.56;10455871;28;20119;-75
2022/03/05 05:07:28;;;;;;;48.25;25.92;;;;;;;-1.57;94.20;102076.31;10457449;28;20080;-75
2022/03/05 05:12:28;;;;;;;38.58;23.42;;;;;;;-1.58;94.85;102066.66;10439810;28;20091;-75
2022/03/05 05:17:34;;;;;;;48.30;24.90;;;;;;;-1.48;96.48;102075.78;10457763;28;20094;-75
2022/03/05 05:22:34;;;;;;;40.50;26.52;;;;;;;-1.54;94.74;102080.63;10457617;28;20460;-74
2022/03/05 05:27:36;;;;;;;47.28;27.25;;;;;;;-1.66;96.18;102075.09;10460089;28;20041;-74
2022/03/05 05:32:36;;;;;;;50.40;30.20;;;;;;;-1.69;96.43;102077.94;10427034;28;20424;-74
2022/03/05 05:37:37;;;;;;;40.55;25.42;;;;;;;-1.68;94.43;102074.31;10456917;28;20044;-74
2022/03/05 05:42:37;;;;;;;43.13;27.67;;;;;;;-1.77;93.34;102087.28;10456929;28;20069;-74
2022/03/05 05:47:38;;;;;;;49.88;24.70;;;;;;;-1.87;95.65;102073.66;10456322;28;20060;-74
2022/03/05 05:52:39;;;;;;;43.97;25.83;;;;;;;-1.86;94.65;102086.00;10443422;28;20139;-74
2022/03/05 05:57:39;;;;;;;43.85;25.65;;;;;;;-1.95;93.00;102091.81;10434040;28;20480;-74
2022/03/05 06:02:40;;;;;;;45.88;26.35;;;;;;;-1.97;93.44;102089.28;10426358;28;20049;-74
2022/03/05 06:07:40;;;;;;;46.28;25.05;;;;;;;-1.98;93.13;102086.69;10423102;28;20488;-74
2022/03/05 06:12:41;;;;;;;46.63;26.73;;;;;;;-2.12;94.80;102101.59;10421677;28;20056;-74
2022/03/05 06:17:42;;;;;;;51.63;28.50;;;;;;;-2.16;96.72;102089.44;10405028;28;20044;-74
2022/03/05 06:22:43;;;;;;;32.38;19.00;;;;;;;-2.18;97.16;102104.59;10422541;28;20039;-74
2022/03/05 06:27:44;;;;;;;55.22;26.52;;;;;;;-2.18;98.04;102107.25;10407510;28;20072;-74
2022/03/05 06:32:44;;;;;;;55.50;27.83;;;;;;;-2.03;96.37;102112.66;10410437;28;20428;-75
2022/03/05 06:37:45;;;;;;;60.17;28.35;;;;;;;-1.73;96.76;102116.19;10424756;28;20112;-74
2022/03/05 06:42:45;;;;;;;49.08;25.83;;;;;;;-1.40;93.87;102120.53;10420873;28;20465;-74
2022/03/05 06:47:46;;;;;;;49.95;26.70;;;;;;;-0.87;93.56;102116.44;10404847;28;20124;-74
2022/03/05 06:52:46;;;;;;;42.25;23.30;;;;;;;-0.73;96.67;102121.78;10420630;28;20041;-74
2022/03/05 06:57:46;;;;;;;55.22;27.98;;;;;;;-0.26;97.38;102119.75;10408173;28;20061;-74
2022/03/05 07:02:47;;;;;;;46.72;24.63;;;;;;;0.14;97.40;102111.88;10419034;28;20128;-74
2022/03/05 07:07:47;;;;;;;47.08;24.00;;;;;;;0.54;95.97;102110.06;10419263;28;20033;-74
2022/03/05 07:12:48;;;;;;;37.85;24.25;;;;;;;1.02;94.09;102121.06;10419991;28;20033;-74
2022/03/05 07:17:49;;;;;;;36.90;17.27;;;;;;;1.29;92.17;102133.44;10419053;28;20133;-75
2022/03/05 07:22:49;;;;;;;32.42;18.20;;;;;;;1.63;91.79;102123.91;10403002;28;20041;-75
2022/03/05 07:27:50;;;;;;;42.92;21.48;;;;;;;2.02;90.38;102144.22;10420214;28;20037;-75
2022/03/05 07:32:50;;;;;;;34.75;22.63;;;;;;;2.07;88.01;102152.78;10426394;28;20037;-76
2022/03/05 07:37:51;;;;;;;42.15;19.38;;;;;;;2.19;87.18;102159.03;10402102;28;20021;-75
2022/03/05 07:42:52;;;;;;;41.58;25.20;;;;;;;2.50;86.50;102157.63;10419742;28;20037;-75
2022/03/05 07:47:53;;;;;;;46.28;24.17;;;;;;;2.84;85.41;102152.44;10385507;28;20033;-75
2022/03/05 07:52:53;;;;;;;28.98;18.35;;;;;;;3.13;81.57;102144.84;10420144;28;20378;-76
2022/03/05 07:57:54;;;;;;;42.63;21.20;;;;;;;3.49;82.16;102157.16;10434998;28;20061;-75
2022/03/05 08:02:54;;;;;;;45.65;21.40;;;;;;;3.72;79.43;102158.03;10467581;28;20092;-76
2022/03/05 08:07:55;;;;;;;36.05;21.73;;;;;;;3.64;76.69;102152.44;10444156;28;20444;-76
2022/03/05 08:12:55;;;;;;;50.10;23.48;;;;;;;4.02;74.91;102164.59;10442036;28;20048;-76
2022/03/05 08:17:57;;;;;;;42.88;23.30;;;;;;;4.45;73.57;102162.94;10441170;28;20033;-77
2022/03/05 08:22:58;;;;;;;41.90;21.15;;;;;;;4.72;71.66;102173.19;10440543;28;20094;-77
2022/03/05 08:27:58;;;;;;;37.78;23.30;;;;;;;5.11;69.42;102169.00;10461606;28;20088;-77
2022/03/05 08:32:59;;;;;;;35.38;20.17;;;;;;;5.16;68.31;102173.97;10464794;28;20052;-76
2022/03/05 08:37:59;;;;;;;29.48;21.20;;;;;;;5.68;67.19;102180.19;10457904;28;20033;-77
2022/03/05 08:43:00;;;;;;;53.45;27.65;;;;;;;6.06;66.04;102174.16;10459315;28;20040;-77
2022/03/05 08:48:00;;;;;;;45.55;23.08;;;;;;;6.49;66.44;102175.69;10443977;28;20064;-78
2022/03/05 08:53:01;;;;;;;41.50;23.67;;;;;;;6.84;63.84;102169.75;10437285;28;20107;-79
2022/03/05 08:58:01;;;;;;;32.20;20.17;;;;;;;6.97;61.77;102161.38;10471040;28;20465;-79
2022/03/05 09:03:02;;;;;;;49.30;25.08;;;;;;;7.22;63.03;102151.84;10444477;28;20033;-78
2022/03/05 09:08:02;;;;;;;35.13;20.55;;;;;;;7.43;59.31;102162.44;10440804;28;20075;-78
2022/03/05 09:13:03;;;;;;;35.50;21.30;;;;;;;7.75;59.85;102155.78;10442186;28;20044;-78
2022/03/05 09:18:04;;;;;;;32.72;22.95;;;;;;;7.98;57.36;102153.59;10443284;28;20068;-78
2022/03/05 09:23:04;;;;;;;31.27;20.63;;;;;;;8.20;56.56;102155.88;10458506;28;20047;-78
2022/03/05 09:28:05;;;;;;;33.10;19.58;;;;;;;8.22;56.33;102164.66;10479641;28;20463;-78
2022/03/05 09:33:07;;;;;;;37.10;20.88;;;;;;;8.60;55.69;102150.06;10448209;28;20100;-78
2022/03/05 09:38:07;;;;;;;37.25;20.48;;;;;;;9.03;55.37;102161.94;10466827;28;20060;-78
2022/03/05 09:43:08;;;;;;;40.05;22.25;;;;;;;9.18;54.78;102153.25;10466556;28;20044;-79
2022/03/05 09:48:08;;;;;;;32.13;20.38;;;;;;;9.48;52.16;102158.22;10449127;28;20033;-79
2022/03/05 09:53:08;;;;;;;41.45;24.58;;;;;;;9.98;51.98;102157.44;10479566;28;20037;-78
2022/03/05 09:58:09;;;;;;;35.78;21.38;;;;;;;9.69;51.31;102152.41;10450348;28;20069;-78
2022/03/05 10:03:11;;;;;;;40.33;22.13;;;;;;;10.25;50.11;102158.25;10448791;28;20115;-79
2022/03/05 10:08:15;;;;;;;23.73;17.42;;;;;;;10.01;47.36;102158.97;10433065;28;20067;-78
2022/03/05 10:13:16;;;;;;;46.40;21.33;;;;;;;9.86;49.67;102158.78;10465217;28;20037;-76
2022/03/05 10:18:16;;;;;;;31.35;19.90;;;;;;;10.51;48.97;102158.16;10447167;28;20032;-70
2022/03/05 10:23:18;;;;;;;42.63;23.17;;;;;;;10.41;49.90;102152.06;10448762;28;20455;-74
2022/03/05 10:28:26;;;;;;;36.30;23.25;;;;;;;10.88;51.74;102149.56;10431037;28;20025;-73
2022/03/05 10:33:33;;;;;;;33.20;20.70;;;;;;;12.02;50.50;102144.94;10446592;28;20037;-73
2022/03/05 10:39:02;;;;;;;34.33;21.13;;;;;;;11.74;44.50;102148.09;10463692;28;20032;-69
2022/03/05 10:44:06;;;;;;;39.35;21.40;;;;;;;11.26;44.29;102149.88;10446051;28;20119;-68
2022/03/05 10:49:15;;;;;;;37.25;20.42;;;;;;;11.17;45.09;102153.63;10463009;28;20040;-72
2022/03/05 10:54:39;;;;;;;29.00;18.38;;;;;;;11.43;43.75;102148.00;10463738;28;20033;-78
2022/03/05 10:59:47;;;;;;;35.05;18.83;;;;;;;11.58;44.13;102154.41;10445907;28;20476;-74
2022/03/05 11:04:49;;;;;;;33.65;19.63;;;;;;;11.57;42.56;102163.56;10447118;28;20384;-79
2022/03/05 11:09:50;;;;;;;33.65;19.80;;;;;;;10.88;43.59;102163.13;10446939;28;20112;-77
2022/03/05 11:14:51;;;;;;;31.77;17.55;;;;;;;10.75;42.34;102164.63;10404264;28;20136;-78
2022/03/05 11:19:51;;;;;;;26.88;18.30;;;;;;;10.98;43.08;102157.53;10474997;28;20049;-77
2022/03/05 11:24:52;;;;;;;29.08;19.95;;;;;;;11.26;43.41;102147.16;10427368;28;20029;-77
2022/03/05 11:29:56;;;;;;;31.83;21.02;;;;;;;11.59;42.17;102150.66;10443279;28;20135;-78
2022/03/05 11:34:56;;;;;;;34.17;20.27;;;;;;;11.67;41.91;102143.53;10461785;28;20028;-79
2022/03/05 11:39:56;;;;;;;33.30;19.05;;;;;;;11.58;42.05;102140.84;10470363;28;20063;-79
2022/03/05 11:44:57;;;;;;;50.72;23.00;;;;;;;11.69;42.93;102131.47;10479370;28;20029;-78
2022/03/05 11:50:17;;;;;;;36.47;22.38;;;;;;;12.62;42.09;102127.13;10474170;28;20029;-79
2022/03/05 11:55:41;;;;;;;36.00;19.88;;;;;;;13.08;40.71;102132.50;10456583;28;20354;-79
2022/03/05 12:00:44;;;;;;;36.15;22.23;;;;;;;13.08;39.47;102133.38;10453068;28;20185;-79
2022/03/05 12:05:46;;;;;;;33.92;18.95;;;;;;;12.95;39.70;102122.25;10443532;28;20048;-79
2022/03/05 12:11:13;;;;;;;38.35;21.65;;;;;;;12.63;39.80;102120.66;10460490;28;20087;-79
2022/03/05 12:16:15;;;;;;;36.60;19.33;;;;;;;12.66;40.34;102128.44;10463377;28;20025;-79
2022/03/05 12:21:19;;;;;;;38.10;20.15;;;;;;;12.69;38.86;102125.34;10441396;28;20029;-79
2022/03/05 12:26:20;;;;;;;31.50;21.77;;;;;;;12.93;39.76;102130.59;10441559;28;20373;-79
2022/03/05 12:31:20;;;;;;;41.70;20.50;;;;;;;12.89;39.86;102123.84;10440539;28;20044;-80
2022/03/05 12:36:22;;;;;;;27.63;18.77;;;;;;;12.78;40.89;102119.69;10458791;28;20064;-79
2022/03/05 12:41:26;;;;;;;30.15;18.23;;;;;;;12.88;40.45;102110.44;10424542;28;20044;-79
2022/03/05 12:46:27;;;;;;;31.90;18.63;;;;;;;13.37;40.37;102105.41;10440187;28;20120;-79
2022/03/05 12:51:27;;;;;;;26.85;21.50;;;;;;;13.17;40.52;102109.66;10440342;28;20045;-80
2022/03/05 12:56:28;;;;;;;28.67;17.92;;;;;;;12.94;42.97;102102.38;10440586;28;20059;-80
2022/03/05 13:01:32;;;;;;;37.55;19.08;;;;;;;13.59;43.22;102095.47;10439465;28;20100;-79
2022/03/05 13:06:32;;;;;;;30.00;19.83;;;;;;;14.05;45.00;102097.09;10423732;28;20519;-79
2022/03/05 13:11:33;;;;;;;25.75;18.65;;;;;;;13.83;40.90;102088.88;10457869;28;20055;-79
2022/03/05 13:16:41;;;;;;;38.10;20.42;;;;;;;14.14;41.82;102093.22;10446243;28;20477;-78
2022/03/05 13:21:49;;;;;;;32.70;21.15;;;;;;;13.14;40.79;102099.97;10444494;28;20040;-78
2022/03/05 13:26:55;;;;;;;36.15;21.25;;;;;;;13.45;46.71;102096.28;10431984;28;20044;-78
2022/03/05 13:31:59;;;;;;;32.53;19.20;;;;;;;13.66;46.42;102093.69;10467073;28;20040;-77
2022/03/05 13:37:07;;;;;;;27.08;18.60;;;;;;;13.87;45.54;102089.31;10434931;28;20035;-77
2022/03/05 13:42:12;;;;;;;31.83;19.42;;;;;;;13.69;42.02;102101.47;10466143;28;20089;-78
2022/03/05 13:47:13;;;;;;;33.95;22.08;;;;;;;13.49;45.19;102106.59;10440789;28;20102;-79
2022/03/05 13:52:20;;;;;;;34.80;20.50;;;;;;;13.34;44.78;102094.91;10438196;28;20099;-78
2022/03/05 13:57:32;;;;;;;27.75;19.17;;;;;;;13.24;44.51;102103.34;10439626;28;20084;-79
2022/03/05 14:02:32;;;;;;;32.55;19.73;;;;;;;13.28;44.55;102092.06;10422201;28;20045;-79
2022/03/05 14:07:36;;;;;;;30.00;19.48;;;;;;;13.14;43.61;102089.09;10433117;28;20036;-77
2022/03/05 14:12:37;;;;;;;24.15;18.50;;;;;;;12.34;40.41;102095.88;10445992;28;20072;-78
2022/03/05 14:17:46;;;;;;;29.55;18.30;;;;;;;12.39;44.19;102094.50;10445650;28;20384;-76
2022/03/05 14:22:54;;;;;;;38.08;21.50;;;;;;;11.99;45.59;102089.13;10445887;28;20091;-79
2022/03/05 14:27:59;;;;;;;26.63;18.33;;;;;;;12.19;44.88;102092.25;10462351;28;20528;-80
2022/03/05 14:33:00;;;;;;;26.73;17.00;;;;;;;12.32;47.76;102094.38;10429560;28;20033;-80
2022/03/05 14:38:00;;;;;;;25.40;17.10;;;;;;;12.19;48.91;102096.81;10430989;28;20041;-79
2022/03/05 14:43:02;;;;;;;25.88;17.30;;;;;;;12.14;46.22;102099.25;10463019;28;20033;-79
2022/03/05 14:48:03;;;;;;;31.63;19.10;;;;;;;11.96;42.85;102094.06;10394364;28;20049;-79
2022/03/05 14:53:04;;;;;;;29.20;18.25;;;;;;;11.18;39.88;102103.81;10445338;28;20040;-78
2022/03/05 14:58:07;;;;;;;22.60;15.43;;;;;;;10.63;43.87;102109.94;10413880;28;20481;-79
2022/03/05 15:03:09;;;;;;;25.63;17.30;;;;;;;10.33;43.29;102112.25;10373064;28;20041;-79
2022/03/05 15:08:10;;;;;;;37.20;20.23;;;;;;;10.41;44.71;102108.72;10377730;28;20059;-77
2022/03/05 15:13:10;;;;;;;39.20;19.75;;;;;;;10.09;46.18;102125.72;10403345;28;20040;-78
2022/03/05 15:18:11;;;;;;;37.65;22.10;;;;;;;9.92;47.99;102117.53;10418570;28;20044;-77
2022/03/05 15:23:11;;;;;;;35.05;20.55;;;;;;;9.24;50.66;102117.50;10384855;28;20208;-79
2022/03/05 15:28:12;;;;;;;40.35;24.50;;;;;;;8.63;52.63;102129.19;10370399;28;20029;-76
2022/03/05 15:33:12;;;;;;;36.35;21.17;;;;;;;8.20;54.45;102119.94;10389572;28;20033;-78
2022/03/05 15:38:13;;;;;;;29.50;18.83;;;;;;;8.10;53.49;102130.78;10404339;28;20128;-78
2022/03/05 15:43:17;;;;;;;40.13;21.98;;;;;;;7.95;54.11;102133.16;10407861;28;20065;-78
2022/03/05 15:48:17;;;;;;;35.78;21.83;;;;;;;7.43;57.56;102136.34;10434787;28;20041;-77
2022/03/05 15:53:18;;;;;;;38.97;22.80;;;;;;;7.33;56.73;102138.19;10415780;28;20044;-77
2022/03/05 15:58:20;;;;;;;45.58;24.67;;;;;;;7.17;57.35;102136.09;10444245;28;20052;-77
2022/03/05 16:03:20;;;;;;;36.50;21.45;;;;;;;6.97;58.06;102142.53;10437693;28;20090;-77
2022/03/05 16:08:21;;;;;;;38.10;23.00;;;;;;;6.97;57.59;102132.59;10415622;28;20461;-77
2022/03/05 16:13:21;;;;;;;41.58;23.40;;;;;;;6.58;60.74;102142.56;10445200;28;20091;-77
2022/03/05 16:18:23;;;;;;;35.97;21.40;;;;;;;6.36;61.38;102146.34;10426286;28;20120;-77
2022/03/05 16:23:24;;;;;;;41.40;24.30;;;;;;;6.31;62.04;102142.38;10425256;28;20032;-76
2022/03/05 16:28:25;;;;;;;46.08;22.38;;;;;;;6.22;62.64;102142.22;10408110;28;20408;-77
2022/03/05 16:33:26;;;;;;;39.75;23.52;;;;;;;5.96;65.03;102149.06;10424226;28;20040;-77
2022/03/05 16:38:28;;;;;;;29.67;20.30;;;;;;;5.96;64.20;102146.38;10425490;28;20068;-77
2022/03/05 16:43:30;;;;;;;42.78;23.42;;;;;;;5.82;65.81;102156.50;10423476;28;20052;-77
2022/03/05 16:48:32;;;;;;;44.20;24.58;;;;;;;5.68;66.68;102167.63;10408869;28;20060;-77
2022/03/05 16:53:32;;;;;;;33.03;23.17;;;;;;;5.48;68.10;102160.44;10440728;28;20033;-77
2022/03/05 16:58:33;;;;;;;41.20;24.75;;;;;;;5.45;66.85;102163.38;10445815;28;20049;-76
2022/03/05 17:03:33;;;;;;;35.85;23.30;;;;;;;5.26;68.23;102156.91;10449503;28;20036;-77
2022/03/05 17:08:33;;;;;;;52.20;23.25;;;;;;;5.19;66.75;102169.16;10440423;28;20055;-76
2022/03/05 17:13:35;;;;;;;43.22;22.88;;;;;;;5.03;66.99;102174.16;10440736;28;20033;-77
2022/03/05 17:18:37;;;;;;;42.13;23.52;;;;;;;4.93;64.89;102174.06;10440185;28;20374;-77
2022/03/05 17:23:37;;;;;;;46.00;24.73;;;;;;;4.77;65.06;102177.19;10423131;28;20041;-76
2022/03/05 17:28:37;;;;;;;56.05;25.95;;;;;;;4.70;66.08;102188.56;10448210;28;20057;-76
2022/03/05 17:33:39;;;;;;;50.55;26.38;;;;;;;4.57;66.45;102194.97;10410538;28;20475;-77
2022/03/05 17:38:39;;;;;;;37.17;23.90;;;;;;;4.48;66.98;102203.75;10439783;28;20037;-76
2022/03/05 17:43:42;;;;;;;50.72;27.52;;;;;;;4.39;65.90;102212.56;10439097;28;20115;-76
2022/03/05 17:48:43;;;;;;;46.85;26.10;;;;;;;4.26;69.08;102203.81;10460390;28;20033;-76
2022/03/05 17:53:43;;;;;;;45.13;23.88;;;;;;;4.20;68.09;102213.19;10449330;28;20516;-76
2022/03/05 17:58:44;;;;;;;41.55;25.30;;;;;;;4.11;69.35;102222.81;10455696;28;20143;-76
2022/03/05 18:03:44;;;;;;;48.83;24.77;;;;;;;4.08;70.34;102224.88;10447235;28;20496;-76
2022/03/05 18:08:46;;;;;;;46.55;25.90;;;;;;;3.94;73.85;102228.69;10436852;28;20092;-76
2022/03/05 18:13:47;;;;;;;42.55;27.10;;;;;;;3.94;70.96;102228.69;10456150;28;20453;-76
2022/03/05 18:18:47;;;;;;;52.00;28.10;;;;;;;3.86;71.85;102226.63;10447252;28;20068;-76
2022/03/05 18:23:48;;;;;;;49.58;26.58;;;;;;;3.78;73.14;102234.38;10465790;28;20080;-76
2022/03/05 18:28:51;;;;;;;56.38;29.00;;;;;;;3.73;72.44;102245.47;10430842;28;20531;-76
2022/03/05 18:33:51;;;;;;;39.67;24.92;;;;;;;3.62;74.17;102234.75;10446129;28;20450;-76
2022/03/05 18:38:52;;;;;;;53.55;28.58;;;;;;;3.61;72.64;102232.19;10445709;28;20043;-76
2022/03/05 18:43:52;;;;;;;47.17;27.10;;;;;;;3.47;72.52;102242.13;10463647;28;20033;-76
2022/03/05 18:48:53;;;;;;;46.90;27.27;;;;;;;3.30;74.57;102247.09;10462465;28;20117;-76
2022/03/05 18:53:53;;;;;;;36.38;24.17;;;;;;;3.27;72.14;102256.19;10462954;28;20124;-76
2022/03/05 18:58:55;;;;;;;45.70;24.65;;;;;;;3.19;73.27;102263.94;10451828;28;20063;-76
2022/03/05 19:03:55;;;;;;;55.67;27.38;;;;;;;3.15;75.34;102267.81;10463500;28;20041;-76
2022/03/05 19:08:56;;;;;;;41.60;26.45;;;;;;;3.08;73.74;102275.47;10462328;28;20029;-76
2022/03/05 19:13:56;;;;;;;46.70;26.30;;;;;;;3.01;73.55;102280.44;10443493;28;20056;-76
2022/03/05 19:18:57;;;;;;;47.85;24.83;;;;;;;2.95;75.15;102274.69;10461730;28;20138;-76
2022/03/05 19:23:57;;;;;;;54.90;27.25;;;;;;;2.84;74.66;102282.63;10444372;28;20100;-76
2022/03/05 19:28:57;;;;;;;51.03;26.42;;;;;;;2.77;74.90;102282.22;10467886;28;20040;-76
2022/03/05 19:33:58;;;;;;;49.20;26.77;;;;;;;2.77;75.52;102284.91;10459028;28;20067;-76
2022/03/05 19:38:58;;;;;;;47.05;26.17;;;;;;;2.72;77.51;102289.75;10461061;28;20028;-76
2022/03/05 19:43:59;;;;;;;45.10;25.90;;;;;;;2.68;75.92;102285.56;10469787;28;20037;-76
2022/03/05 19:48:59;;;;;;;43.50;23.48;;;;;;;2.62;76.48;102278.03;10450339;28;20037;-76
2022/03/05 19:53:59;;;;;;;46.05;24.85;;;;;;;2.61;77.24;102295.88;10463131;28;20041;-75
2022/03/05 19:59:00;;;;;;;48.45;25.42;;;;;;;2.55;75.98;102301.66;10429291;28;20077;-76
2022/03/05 20:04:00;;;;;;;37.50;23.33;;;;;;;2.49;75.60;102307.44;10387067;28;20367;-76
2022/03/05 20:09:01;;;;;;;43.38;23.33;;;;;;;2.46;76.86;102305.88;10401532;28;20030;-76
2022/03/05 20:14:01;;;;;;;45.42;21.52;;;;;;;2.46;76.78;102316.56;10402860;28;20572;-75
2022/03/05 20:19:01;;;;;;;40.17;23.65;;;;;;;2.36;78.79;102318.16;10419371;28;20041;-76
2022/03/05 20:24:02;;;;;;;47.92;25.13;;;;;;;2.39;75.96;102320.63;10423617;28;20525;-75
2022/03/05 20:29:04;;;;;;;42.47;22.38;;;;;;;2.28;78.26;102321.41;10422674;28;20072;-76
2022/03/05 20:34:04;;;;;;;37.90;22.48;;;;;;;2.31;78.73;102331.88;10418327;28;20037;-75
2022/03/05 20:39:05;;;;;;;46.22;25.52;;;;;;;2.29;78.77;102316.91;10417962;28;20034;-76
2022/03/05 20:44:05;;;;;;;39.38;21.63;;;;;;;2.25;79.19;102331.44;10418052;28;20040;-76
2022/03/05 20:49:06;;;;;;;48.42;25.83;;;;;;;2.23;79.28;102331.53;10399510;28;20046;-76
2022/03/05 20:54:06;;;;;;;47.85;26.42;;;;;;;2.17;79.58;102334.69;10399042;28;20519;-75
2022/03/05 20:59:07;;;;;;;38.50;20.98;;;;;;;2.09;79.93;102347.69;10423733;28;20462;-75
2022/03/05 21:04:07;;;;;;;40.42;23.50;;;;;;;2.09;80.22;102358.38;10396657;28;20067;-75
2022/03/05 21:09:07;;;;;;;44.50;25.10;;;;;;;2.03;80.73;102358.81;10414726;28;20038;-75
2022/03/05 21:14:08;;;;;;;49.00;24.52;;;;;;;1.94;82.82;102370.13;10396827;28;20092;-76
2022/03/05 21:19:08;;;;;;;37.83;23.00;;;;;;;1.95;83.30;102371.88;10398006;28;20049;-76
2022/03/05 21:24:09;;;;;;;42.40;24.95;;;;;;;1.93;84.09;102371.09;10414159;28;20493;-76
2022/03/05 21:29:09;;;;;;;37.53;25.73;;;;;;;1.95;84.29;102367.38;10407101;28;20049;-76
2022/03/05 21:34:10;;;;;;;45.30;27.27;;;;;;;1.94;84.02;102368.31;10413855;28;20496;-76
2022/03/05 21:39:10;;;;;;;49.35;24.52;;;;;;;1.84;84.95;102378.78;10396449;28;20176;-75
2022/03/05 21:44:10;;;;;;;39.33;23.90;;;;;;;1.89;86.16;102377.63;10413956;28;20029;-75
2022/03/05 21:49:11;;;;;;;39.70;23.48;;;;;;;1.90;85.48;102382.84;10414482;28;20044;-76
2022/03/05 21:54:12;;;;;;;40.53;21.50;;;;;;;1.85;85.01;102383.16;10380974;28;20033;-76
2022/03/05 21:59:12;;;;;;;38.78;24.65;;;;;;;1.81;85.28;102391.47;10384353;28;1113464;-75
2022/03/05 22:04:13;;;;;;;31.17;20.70;;;;;;;1.80;85.29;102408.47;10398735;28;20045;-75
2022/03/05 22:09:13;;;;;;;38.60;21.77;;;;;;;1.83;87.85;102409.13;10416874;28;20101;-75
2022/03/05 22:14:13;;;;;;;33.22;20.52;;;;;;;1.83;87.43;102424.28;10398535;28;20061;-76
2022/03/05 22:19:17;;;;;;;38.67;22.77;;;;;;;1.86;87.67;102422.28;10415044;28;20456;-76
2022/03/05 22:24:19;;;;;;;41.70;21.50;;;;;;;1.89;87.00;102429.22;10415881;28;20108;-76
2022/03/05 22:29:20;;;;;;;33.05;22.30;;;;;;;1.85;86.92;102431.25;10398081;28;20401;-75
2022/03/05 22:34:24;;;;;;;37.60;21.90;;;;;;;1.87;88.06;102433.81;10420308;28;20029;-76
2022/03/05 22:39:24;;;;;;;42.78;24.98;;;;;;;1.81;91.87;102426.19;10429094;28;20033;-76
2022/03/05 22:44:25;;;;;;;40.33;22.38;;;;;;;1.83;91.22;102425.16;10411873;28;20048;-75
2022/03/05 22:49:26;;;;;;;36.33;21.02;;;;;;;1.81;91.47;102431.53;10426134;28;20481;-75